sensor_id;sensor_type;location;lat;lon;timestamp;P1;durP1;ratioP1;P2;durP2;ratioP2
68386;SDS011;55338;43.062;25.624;2023-04-24T00:00:15;7.27;;;3.80;;
68386;SDS011;55338;43.062;25.624;2023-04-24T00:02:43;7.72;;;3.42;;
68386;SDS011;55338;43.062;25.624;2023-04-24T00:05:16;7.13;;;3.75;;
68386;SDS011;55338;43.062;25.624;2023-04-24T00:07:42;6.80;;;3.80;;
68386;SDS011;55338;43.062;25.624;2023-04-24T00:10:10;8.63;;;3.75;;
68386;SDS011;55338;43.062;25.624;2023-04-24T00:12:36;7.47;;;3.27;;
68386;SDS011;55338;43.062;25.624;2023-04-24T00:15:02;7.80;;;3.95;;
68386;SDS011;55338;43.062;25.624;2023-04-24T00:17:28;8.55;;;3.55;;
68386;SDS011;55338;43.062;25.624;2023-04-24T00:19:54;7.77;;;3.50;;
68386;SDS011;55338;43.062;25.624;2023-04-24T00:22:29;7.80;;;3.55;;
68386;SDS011;55338;43.062;25.624;2023-04-24T00:24:56;8.38;;;4.13;;
68386;SDS011;55338;43.062;25.624;2023-04-24T00:27:22;10.35;;;3.75;;
68386;SDS011;55338;43.062;25.624;2023-04-24T00:29:48;8.27;;;3.50;;
68386;SDS011;55338;43.062;25.624;2023-04-24T00:32:13;7.63;;;3.57;;
68386;SDS011;55338;43.062;25.624;2023-04-24T00:34:40;11.55;;;3.30;;
68386;SDS011;55338;43.062;25.624;2023-04-24T00:37:06;9.38;;;4.32;;
68386;SDS011;55338;43.062;25.624;2023-04-24T00:39:32;7.93;;;3.97;;
68386;SDS011;55338;43.062;25.624;2023-04-24T00:41:58;7.55;;;3.90;;
68386;SDS011;55338;43.062;25.624;2023-04-24T00:44:24;8.00;;;3.67;;
68386;SDS011;55338;43.062;25.624;2023-04-24T00:46:50;11.55;;;3.40;;
68386;SDS011;55338;43.062;25.624;2023-04-24T00:49:20;10.77;;;4.13;;
68386;SDS011;55338;43.062;25.624;2023-04-24T00:51:47;6.70;;;3.28;;
68386;SDS011;55338;43.062;25.624;2023-04-24T00:54:14;6.68;;;3.30;;
68386;SDS011;55338;43.062;25.624;2023-04-24T00:56:41;10.40;;;3.60;;
68386;SDS011;55338;43.062;25.624;2023-04-24T00:59:07;6.40;;;3.40;;
68386;SDS011;55338;43.062;25.624;2023-04-24T01:01:33;7.63;;;3.97;;
68386;SDS011;55338;43.062;25.624;2023-04-24T01:03:59;8.57;;;3.67;;
68386;SDS011;55338;43.062;25.624;2023-04-24T01:06:27;9.38;;;4.50;;
68386;SDS011;55338;43.062;25.624;2023-04-24T01:08:54;7.38;;;3.80;;
68386;SDS011;55338;43.062;25.624;2023-04-24T01:11:24;8.73;;;4.22;;
68386;SDS011;55338;43.062;25.624;2023-04-24T01:13:50;9.10;;;4.20;;
68386;SDS011;55338;43.062;25.624;2023-04-24T01:16:17;9.32;;;4.90;;
68386;SDS011;55338;43.062;25.624;2023-04-24T01:18:45;8.27;;;4.78;;
68386;SDS011;55338;43.062;25.624;2023-04-24T01:21:12;14.85;;;5.10;;
68386;SDS011;55338;43.062;25.624;2023-04-24T01:23:40;9.05;;;4.60;;
68386;SDS011;55338;43.062;25.624;2023-04-24T01:26:05;8.02;;;4.55;;
68386;SDS011;55338;43.062;25.624;2023-04-24T01:28:31;15.65;;;4.35;;
68386;SDS011;55338;43.062;25.624;2023-04-24T01:30:57;8.03;;;4.03;;
68386;SDS011;55338;43.062;25.624;2023-04-24T01:33:24;8.82;;;4.60;;
68386;SDS011;55338;43.062;25.624;2023-04-24T01:35:50;7.88;;;3.95;;
68386;SDS011;55338;43.062;25.624;2023-04-24T01:38:16;12.90;;;4.20;;
68386;SDS011;55338;43.062;25.624;2023-04-24T01:40:42;11.57;;;4.40;;
68386;SDS011;55338;43.062;25.624;2023-04-24T01:43:08;9.52;;;4.53;;
68386;SDS011;55338;43.062;25.624;2023-04-24T01:45:34;9.27;;;4.10;;
68386;SDS011;55338;43.062;25.624;2023-04-24T01:48:00;8.73;;;3.90;;
68386;SDS011;55338;43.062;25.624;2023-04-24T01:50:26;9.48;;;4.43;;
68386;SDS011;55338;43.062;25.624;2023-04-24T01:52:52;7.73;;;4.10;;
68386;SDS011;55338;43.062;25.624;2023-04-24T01:55:17;9.48;;;4.40;;
68386;SDS011;55338;43.062;25.624;2023-04-24T01:57:43;10.13;;;3.60;;
68386;SDS011;55338;43.062;25.624;2023-04-24T02:00:09;10.10;;;3.45;;
68386;SDS011;55338;43.062;25.624;2023-04-24T02:02:37;8.13;;;4.23;;
68386;SDS011;55338;43.062;25.624;2023-04-24T02:05:05;11.57;;;3.78;;
68386;SDS011;55338;43.062;25.624;2023-04-24T02:07:32;13.32;;;4.38;;
68386;SDS011;55338;43.062;25.624;2023-04-24T02:09:58;7.00;;;3.90;;
68386;SDS011;55338;43.062;25.624;2023-04-24T02:12:24;7.20;;;3.33;;
68386;SDS011;55338;43.062;25.624;2023-04-24T02:14:49;5.95;;;3.50;;
68386;SDS011;55338;43.062;25.624;2023-04-24T02:17:15;13.10;;;4.35;;
68386;SDS011;55338;43.062;25.624;2023-04-24T02:19:41;8.87;;;4.33;;
68386;SDS011;55338;43.062;25.624;2023-04-24T02:22:07;8.90;;;4.50;;
68386;SDS011;55338;43.062;25.624;2023-04-24T02:24:33;11.13;;;4.35;;
68386;SDS011;55338;43.062;25.624;2023-04-24T02:26:59;13.60;;;5.22;;
68386;SDS011;55338;43.062;25.624;2023-04-24T02:29:25;11.23;;;3.72;;
68386;SDS011;55338;43.062;25.624;2023-04-24T02:31:50;7.13;;;3.57;;
68386;SDS011;55338;43.062;25.624;2023-04-24T02:34:16;12.13;;;3.97;;
68386;SDS011;55338;43.062;25.624;2023-04-24T02:36:42;7.20;;;3.77;;
68386;SDS011;55338;43.062;25.624;2023-04-24T02:39:08;9.65;;;3.72;;
68386;SDS011;55338;43.062;25.624;2023-04-24T02:41:33;6.67;;;3.47;;
68386;SDS011;55338;43.062;25.624;2023-04-24T02:43:59;10.60;;;3.80;;
68386;SDS011;55338;43.062;25.624;2023-04-24T02:46:25;9.33;;;3.83;;
68386;SDS011;55338;43.062;25.624;2023-04-24T02:48:51;9.43;;;4.45;;
68386;SDS011;55338;43.062;25.624;2023-04-24T02:51:16;17.83;;;5.15;;
68386;SDS011;55338;43.062;25.624;2023-04-24T02:53:42;13.82;;;4.70;;
68386;SDS011;55338;43.062;25.624;2023-04-24T02:56:08;8.68;;;3.97;;
68386;SDS011;55338;43.062;25.624;2023-04-24T02:58:37;11.85;;;3.75;;
68386;SDS011;55338;43.062;25.624;2023-04-24T03:01:03;12.83;;;4.93;;
68386;SDS011;55338;43.062;25.624;2023-04-24T03:03:29;12.00;;;4.40;;
68386;SDS011;55338;43.062;25.624;2023-04-24T03:05:55;13.05;;;4.40;;
68386;SDS011;55338;43.062;25.624;2023-04-24T03:08:22;24.07;;;4.40;;
68386;SDS011;55338;43.062;25.624;2023-04-24T03:10:48;11.35;;;4.07;;
68386;SDS011;55338;43.062;25.624;2023-04-24T03:13:15;15.48;;;4.55;;
68386;SDS011;55338;43.062;25.624;2023-04-24T03:15:41;9.77;;;4.22;;
68386;SDS011;55338;43.062;25.624;2023-04-24T03:18:07;11.00;;;4.00;;
68386;SDS011;55338;43.062;25.624;2023-04-24T03:20:32;9.80;;;3.75;;
68386;SDS011;55338;43.062;25.624;2023-04-24T03:22:58;9.10;;;3.93;;
68386;SDS011;55338;43.062;25.624;2023-04-24T03:25:24;9.02;;;4.50;;
68386;SDS011;55338;43.062;25.624;2023-04-24T03:27:50;8.68;;;3.88;;
68386;SDS011;55338;43.062;25.624;2023-04-24T03:30:16;12.87;;;4.33;;
68386;SDS011;55338;43.062;25.624;2023-04-24T03:32:42;10.10;;;4.60;;
68386;SDS011;55338;43.062;25.624;2023-04-24T03:35:08;17.00;;;4.20;;
68386;SDS011;55338;43.062;25.624;2023-04-24T03:37:34;13.20;;;4.18;;
68386;SDS011;55338;43.062;25.624;2023-04-24T03:40:00;11.35;;;3.97;;
68386;SDS011;55338;43.062;25.624;2023-04-24T03:42:26;13.02;;;4.85;;
68386;SDS011;55338;43.062;25.624;2023-04-24T03:44:52;18.23;;;4.93;;
68386;SDS011;55338;43.062;25.624;2023-04-24T03:47:18;23.50;;;5.55;;
68386;SDS011;55338;43.062;25.624;2023-04-24T03:49:43;12.15;;;3.80;;
68386;SDS011;55338;43.062;25.624;2023-04-24T03:52:09;12.47;;;4.73;;
68386;SDS011;55338;43.062;25.624;2023-04-24T03:54:35;11.85;;;4.82;;
68386;SDS011;55338;43.062;25.624;2023-04-24T03:57:01;18.03;;;4.33;;
68386;SDS011;55338;43.062;25.624;2023-04-24T03:59:26;18.92;;;4.95;;
68386;SDS011;55338;43.062;25.624;2023-04-24T04:01:52;13.07;;;4.10;;
68386;SDS011;55338;43.062;25.624;2023-04-24T04:04:18;7.65;;;3.78;;
68386;SDS011;55338;43.062;25.624;2023-04-24T04:06:43;20.65;;;4.78;;
68386;SDS011;55338;43.062;25.624;2023-04-24T04:09:09;13.35;;;4.45;;
68386;SDS011;55338;43.062;25.624;2023-04-24T04:11:35;17.57;;;4.53;;
68386;SDS011;55338;43.062;25.624;2023-04-24T04:14:02;15.80;;;4.28;;
68386;SDS011;55338;43.062;25.624;2023-04-24T04:16:27;16.67;;;4.85;;
68386;SDS011;55338;43.062;25.624;2023-04-24T04:18:53;10.60;;;4.33;;
68386;SDS011;55338;43.062;25.624;2023-04-24T04:21:19;27.08;;;4.88;;
68386;SDS011;55338;43.062;25.624;2023-04-24T04:23:45;18.98;;;5.28;;
68386;SDS011;55338;43.062;25.624;2023-04-24T04:26:11;9.53;;;4.40;;
68386;SDS011;55338;43.062;25.624;2023-04-24T04:28:37;10.85;;;4.20;;
68386;SDS011;55338;43.062;25.624;2023-04-24T04:31:04;10.95;;;4.38;;
68386;SDS011;55338;43.062;25.624;2023-04-24T04:33:30;10.77;;;4.40;;
68386;SDS011;55338;43.062;25.624;2023-04-24T04:35:56;12.88;;;4.55;;
68386;SDS011;55338;43.062;25.624;2023-04-24T04:38:22;9.95;;;3.92;;
68386;SDS011;55338;43.062;25.624;2023-04-24T04:40:48;11.98;;;3.78;;
68386;SDS011;55338;43.062;25.624;2023-04-24T04:43:13;8.70;;;4.03;;
68386;SDS011;55338;43.062;25.624;2023-04-24T04:45:41;12.50;;;3.72;;
68386;SDS011;55338;43.062;25.624;2023-04-24T04:48:08;9.55;;;3.97;;
68386;SDS011;55338;43.062;25.624;2023-04-24T04:50:37;15.33;;;5.23;;
68386;SDS011;55338;43.062;25.624;2023-04-24T04:53:03;16.00;;;4.15;;
68386;SDS011;55338;43.062;25.624;2023-04-24T04:55:29;8.68;;;4.30;;
68386;SDS011;55338;43.062;25.624;2023-04-24T04:57:55;10.65;;;4.40;;
68386;SDS011;55338;43.062;25.624;2023-04-24T05:00:24;16.83;;;4.60;;
68386;SDS011;55338;43.062;25.624;2023-04-24T05:02:50;11.18;;;4.53;;
68386;SDS011;55338;43.062;25.624;2023-04-24T05:05:16;15.75;;;4.47;;
68386;SDS011;55338;43.062;25.624;2023-04-24T05:07:43;16.98;;;6.82;;
68386;SDS011;55338;43.062;25.624;2023-04-24T05:10:09;27.20;;;9.65;;
68386;SDS011;55338;43.062;25.624;2023-04-24T05:12:35;61.65;;;20.45;;
68386;SDS011;55338;43.062;25.624;2023-04-24T05:15:01;43.70;;;14.88;;
68386;SDS011;55338;43.062;25.624;2023-04-24T05:17:28;39.72;;;12.10;;
68386;SDS011;55338;43.062;25.624;2023-04-24T05:19:54;27.65;;;9.30;;
68386;SDS011;55338;43.062;25.624;2023-04-24T05:22:19;31.43;;;11.20;;
68386;SDS011;55338;43.062;25.624;2023-04-24T05:24:46;38.40;;;12.15;;
68386;SDS011;55338;43.062;25.624;2023-04-24T05:27:12;40.65;;;12.88;;
68386;SDS011;55338;43.062;25.624;2023-04-24T05:29:38;27.03;;;11.10;;
68386;SDS011;55338;43.062;25.624;2023-04-24T05:32:05;24.65;;;10.57;;
68386;SDS011;55338;43.062;25.624;2023-04-24T05:34:31;30.88;;;9.88;;
68386;SDS011;55338;43.062;25.624;2023-04-24T05:36:57;25.27;;;11.57;;
68386;SDS011;55338;43.062;25.624;2023-04-24T05:39:23;24.85;;;11.45;;
68386;SDS011;55338;43.062;25.624;2023-04-24T05:41:50;26.30;;;11.25;;
68386;SDS011;55338;43.062;25.624;2023-04-24T05:44:16;27.85;;;11.45;;
68386;SDS011;55338;43.062;25.624;2023-04-24T05:46:42;25.73;;;12.27;;
68386;SDS011;55338;43.062;25.624;2023-04-24T05:49:07;24.10;;;12.40;;
68386;SDS011;55338;43.062;25.624;2023-04-24T05:51:33;31.98;;;13.55;;
68386;SDS011;55338;43.062;25.624;2023-04-24T05:53:59;37.40;;;15.60;;
68386;SDS011;55338;43.062;25.624;2023-04-24T05:56:25;29.50;;;13.35;;
68386;SDS011;55338;43.062;25.624;2023-04-24T05:58:51;38.63;;;13.73;;
68386;SDS011;55338;43.062;25.624;2023-04-24T06:01:16;29.47;;;12.87;;
68386;SDS011;55338;43.062;25.624;2023-04-24T06:03:43;22.02;;;11.60;;
68386;SDS011;55338;43.062;25.624;2023-04-24T06:06:08;27.33;;;13.60;;
68386;SDS011;55338;43.062;25.624;2023-04-24T06:08:35;32.58;;;12.63;;
68386;SDS011;55338;43.062;25.624;2023-04-24T06:11:01;26.90;;;11.23;;
68386;SDS011;55338;43.062;25.624;2023-04-24T06:13:26;19.60;;;9.60;;
68386;SDS011;55338;43.062;25.624;2023-04-24T06:15:52;17.65;;;9.75;;
68386;SDS011;55338;43.062;25.624;2023-04-24T06:18:19;18.57;;;9.33;;
68386;SDS011;55338;43.062;25.624;2023-04-24T06:20:45;17.98;;;8.73;;
68386;SDS011;55338;43.062;25.624;2023-04-24T06:23:11;19.63;;;8.90;;
68386;SDS011;55338;43.062;25.624;2023-04-24T06:25:37;15.70;;;8.13;;
68386;SDS011;55338;43.062;25.624;2023-04-24T06:28:03;15.13;;;6.75;;
68386;SDS011;55338;43.062;25.624;2023-04-24T06:30:30;13.43;;;6.30;;
68386;SDS011;55338;43.062;25.624;2023-04-24T06:32:56;9.73;;;5.65;;
68386;SDS011;55338;43.062;25.624;2023-04-24T06:35:21;9.77;;;5.43;;
68386;SDS011;55338;43.062;25.624;2023-04-24T06:37:47;9.68;;;4.80;;
68386;SDS011;55338;43.062;25.624;2023-04-24T06:40:13;10.25;;;4.93;;
68386;SDS011;55338;43.062;25.624;2023-04-24T06:42:39;9.88;;;5.25;;
68386;SDS011;55338;43.062;25.624;2023-04-24T06:45:05;8.83;;;4.27;;
68386;SDS011;55338;43.062;25.624;2023-04-24T06:47:31;8.50;;;3.95;;
68386;SDS011;55338;43.062;25.624;2023-04-24T06:49:57;9.57;;;3.97;;
68386;SDS011;55338;43.062;25.624;2023-04-24T06:52:23;9.40;;;4.47;;
68386;SDS011;55338;43.062;25.624;2023-04-24T06:54:49;5.30;;;3.30;;
68386;SDS011;55338;43.062;25.624;2023-04-24T06:57:15;7.78;;;3.75;;
68386;SDS011;55338;43.062;25.624;2023-04-24T06:59:43;7.35;;;3.47;;
68386;SDS011;55338;43.062;25.624;2023-04-24T07:02:09;7.87;;;3.33;;
68386;SDS011;55338;43.062;25.624;2023-04-24T07:04:35;10.57;;;3.42;;
68386;SDS011;55338;43.062;25.624;2023-04-24T07:07:01;8.02;;;4.13;;
68386;SDS011;55338;43.062;25.624;2023-04-24T07:09:27;5.90;;;4.10;;
68386;SDS011;55338;43.062;25.624;2023-04-24T07:11:53;7.75;;;3.42;;
68386;SDS011;55338;43.062;25.624;2023-04-24T07:14:19;6.97;;;3.42;;
68386;SDS011;55338;43.062;25.624;2023-04-24T07:16:45;6.83;;;3.07;;
68386;SDS011;55338;43.062;25.624;2023-04-24T07:19:12;7.63;;;3.78;;
68386;SDS011;55338;43.062;25.624;2023-04-24T07:21:38;4.68;;;3.53;;
68386;SDS011;55338;43.062;25.624;2023-04-24T07:24:03;8.45;;;3.13;;
68386;SDS011;55338;43.062;25.624;2023-04-24T07:26:29;5.00;;;3.60;;
68386;SDS011;55338;43.062;25.624;2023-04-24T07:28:56;5.82;;;3.63;;
68386;SDS011;55338;43.062;25.624;2023-04-24T07:31:22;6.28;;;3.30;;
68386;SDS011;55338;43.062;25.624;2023-04-24T07:33:48;5.73;;;3.70;;
68386;SDS011;55338;43.062;25.624;2023-04-24T07:36:14;5.18;;;3.35;;
68386;SDS011;55338;43.062;25.624;2023-04-24T07:38:44;5.43;;;3.22;;
68386;SDS011;55338;43.062;25.624;2023-04-24T07:41:10;5.82;;;3.47;;
68386;SDS011;55338;43.062;25.624;2023-04-24T07:43:36;6.73;;;3.30;;
68386;SDS011;55338;43.062;25.624;2023-04-24T07:46:01;6.85;;;3.60;;
68386;SDS011;55338;43.062;25.624;2023-04-24T07:48:27;8.13;;;4.17;;
68386;SDS011;55338;43.062;25.624;2023-04-24T07:50:53;9.70;;;4.20;;
68386;SDS011;55338;43.062;25.624;2023-04-24T07:53:19;6.85;;;4.00;;
68386;SDS011;55338;43.062;25.624;2023-04-24T07:55:45;7.30;;;4.50;;
68386;SDS011;55338;43.062;25.624;2023-04-24T07:58:11;8.15;;;5.53;;
68386;SDS011;55338;43.062;25.624;2023-04-24T08:00:37;8.05;;;4.50;;
68386;SDS011;55338;43.062;25.624;2023-04-24T08:03:02;6.00;;;3.50;;
68386;SDS011;55338;43.062;25.624;2023-04-24T08:05:28;4.85;;;3.40;;
68386;SDS011;55338;43.062;25.624;2023-04-24T08:07:54;5.37;;;3.30;;
68386;SDS011;55338;43.062;25.624;2023-04-24T08:10:21;6.25;;;3.50;;
68386;SDS011;55338;43.062;25.624;2023-04-24T08:12:47;6.00;;;3.03;;
68386;SDS011;55338;43.062;25.624;2023-04-24T08:15:13;5.15;;;3.10;;
68386;SDS011;55338;43.062;25.624;2023-04-24T08:17:39;6.70;;;3.75;;
68386;SDS011;55338;43.062;25.624;2023-04-24T08:20:06;9.40;;;4.33;;
68386;SDS011;55338;43.062;25.624;2023-04-24T08:22:38;9.02;;;4.80;;
68386;SDS011;55338;43.062;25.624;2023-04-24T08:25:07;7.10;;;4.65;;
68386;SDS011;55338;43.062;25.624;2023-04-24T08:27:33;7.72;;;4.13;;
68386;SDS011;55338;43.062;25.624;2023-04-24T08:29:59;9.50;;;4.60;;
68386;SDS011;55338;43.062;25.624;2023-04-24T08:32:25;7.97;;;4.50;;
68386;SDS011;55338;43.062;25.624;2023-04-24T08:34:55;7.78;;;4.82;;
68386;SDS011;55338;43.062;25.624;2023-04-24T08:37:23;6.70;;;4.30;;
68386;SDS011;55338;43.062;25.624;2023-04-24T08:39:50;6.80;;;4.55;;
68386;SDS011;55338;43.062;25.624;2023-04-24T08:42:17;8.45;;;4.43;;
68386;SDS011;55338;43.062;25.624;2023-04-24T08:44:44;9.88;;;4.50;;
68386;SDS011;55338;43.062;25.624;2023-04-24T08:47:10;9.93;;;4.63;;
68386;SDS011;55338;43.062;25.624;2023-04-24T08:49:37;11.33;;;4.20;;
68386;SDS011;55338;43.062;25.624;2023-04-24T08:52:05;10.05;;;4.25;;
68386;SDS011;55338;43.062;25.624;2023-04-24T08:54:31;11.15;;;4.03;;
68386;SDS011;55338;43.062;25.624;2023-04-24T08:57:00;15.48;;;4.95;;
68386;SDS011;55338;43.062;25.624;2023-04-24T08:59:28;14.38;;;5.15;;
68386;SDS011;55338;43.062;25.624;2023-04-24T09:01:55;17.97;;;4.33;;
68386;SDS011;55338;43.062;25.624;2023-04-24T09:04:22;8.85;;;3.70;;
68386;SDS011;55338;43.062;25.624;2023-04-24T09:06:58;5.65;;;3.60;;
68386;SDS011;55338;43.062;25.624;2023-04-24T09:09:25;6.22;;;3.75;;
68386;SDS011;55338;43.062;25.624;2023-04-24T09:11:52;10.10;;;4.28;;
68386;SDS011;55338;43.062;25.624;2023-04-24T09:14:20;8.82;;;3.83;;
68386;SDS011;55338;43.062;25.624;2023-04-24T09:16:48;6.18;;;4.05;;
68386;SDS011;55338;43.062;25.624;2023-04-24T09:19:14;7.57;;;4.43;;
68386;SDS011;55338;43.062;25.624;2023-04-24T09:21:40;10.63;;;4.03;;
68386;SDS011;55338;43.062;25.624;2023-04-24T09:24:14;7.03;;;3.87;;
68386;SDS011;55338;43.062;25.624;2023-04-24T09:26:43;12.05;;;5.63;;
68386;SDS011;55338;43.062;25.624;2023-04-24T09:29:13;10.38;;;4.90;;
68386;SDS011;55338;43.062;25.624;2023-04-24T09:31:41;5.82;;;3.90;;
68386;SDS011;55338;43.062;25.624;2023-04-24T09:34:06;7.10;;;3.27;;
68386;SDS011;55338;43.062;25.624;2023-04-24T09:36:33;6.75;;;4.20;;
68386;SDS011;55338;43.062;25.624;2023-04-24T09:39:10;6.63;;;3.47;;
68386;SDS011;55338;43.062;25.624;2023-04-24T09:41:48;5.70;;;3.43;;
68386;SDS011;55338;43.062;25.624;2023-04-24T09:46:42;5.72;;;3.72;;
68386;SDS011;55338;43.062;25.624;2023-04-24T09:49:12;5.78;;;2.95;;
68386;SDS011;55338;43.062;25.624;2023-04-24T09:51:42;5.67;;;3.50;;
68386;SDS011;55338;43.062;25.624;2023-04-24T09:54:18;5.68;;;3.65;;
68386;SDS011;55338;43.062;25.624;2023-04-24T09:56:47;5.95;;;3.38;;
68386;SDS011;55338;43.062;25.624;2023-04-24T09:59:15;5.97;;;3.33;;
68386;SDS011;55338;43.062;25.624;2023-04-24T10:01:42;9.93;;;3.33;;
68386;SDS011;55338;43.062;25.624;2023-04-24T10:06:42;5.75;;;3.38;;
68386;SDS011;55338;43.062;25.624;2023-04-24T10:09:08;7.00;;;3.88;;
68386;SDS011;55338;43.062;25.624;2023-04-24T10:11:37;5.67;;;3.13;;
68386;SDS011;55338;43.062;25.624;2023-04-24T10:14:06;6.10;;;3.70;;
68386;SDS011;55338;43.062;25.624;2023-04-24T10:16:33;6.45;;;4.03;;
68386;SDS011;55338;43.062;25.624;2023-04-24T10:19:00;4.63;;;3.50;;
68386;SDS011;55338;43.062;25.624;2023-04-24T10:21:26;7.35;;;3.20;;
68386;SDS011;55338;43.062;25.624;2023-04-24T10:23:52;8.53;;;3.93;;
68386;SDS011;55338;43.062;25.624;2023-04-24T10:26:19;6.80;;;3.38;;
68386;SDS011;55338;43.062;25.624;2023-04-24T10:28:45;5.35;;;3.67;;
68386;SDS011;55338;43.062;25.624;2023-04-24T10:31:12;5.13;;;3.63;;
68386;SDS011;55338;43.062;25.624;2023-04-24T10:33:42;7.28;;;3.70;;
68386;SDS011;55338;43.062;25.624;2023-04-24T10:36:09;5.93;;;3.63;;
68386;SDS011;55338;43.062;25.624;2023-04-24T10:38:37;8.30;;;4.22;;
68386;SDS011;55338;43.062;25.624;2023-04-24T10:41:12;4.60;;;3.28;;
68386;SDS011;55338;43.062;25.624;2023-04-24T10:43:44;6.95;;;3.63;;
68386;SDS011;55338;43.062;25.624;2023-04-24T10:46:11;8.00;;;3.60;;
68386;SDS011;55338;43.062;25.624;2023-04-24T10:48:44;4.33;;;3.63;;
68386;SDS011;55338;43.062;25.624;2023-04-24T10:51:18;6.72;;;3.75;;
68386;SDS011;55338;43.062;25.624;2023-04-24T10:54:23;5.20;;;3.75;;
68386;SDS011;55338;43.062;25.624;2023-04-24T10:56:50;6.10;;;3.47;;
68386;SDS011;55338;43.062;25.624;2023-04-24T10:59:26;27.27;;;6.22;;
68386;SDS011;55338;43.062;25.624;2023-04-24T11:01:59;4.90;;;3.40;;
68386;SDS011;55338;43.062;25.624;2023-04-24T11:04:29;5.90;;;3.50;;
68386;SDS011;55338;43.062;25.624;2023-04-24T11:06:56;6.38;;;3.60;;
68386;SDS011;55338;43.062;25.624;2023-04-24T11:09:22;5.77;;;3.53;;
68386;SDS011;55338;43.062;25.624;2023-04-24T11:17:37;7.03;;;3.50;;
68386;SDS011;55338;43.062;25.624;2023-04-24T11:20:05;5.43;;;3.47;;
68386;SDS011;55338;43.062;25.624;2023-04-24T11:22:37;8.20;;;3.50;;
68386;SDS011;55338;43.062;25.624;2023-04-24T11:25:05;5.10;;;3.88;;
68386;SDS011;55338;43.062;25.624;2023-04-24T11:27:41;5.65;;;3.42;;
68386;SDS011;55338;43.062;25.624;2023-04-24T11:30:09;5.30;;;3.35;;
68386;SDS011;55338;43.062;25.624;2023-04-24T11:35:15;5.57;;;3.60;;
68386;SDS011;55338;43.062;25.624;2023-04-24T11:37:43;6.00;;;3.33;;
68386;SDS011;55338;43.062;25.624;2023-04-24T11:40:18;6.13;;;3.53;;
68386;SDS011;55338;43.062;25.624;2023-04-24T11:42:52;5.75;;;3.78;;
68386;SDS011;55338;43.062;25.624;2023-04-24T11:45:27;5.53;;;4.20;;
68386;SDS011;55338;43.062;25.624;2023-04-24T11:47:54;6.77;;;3.37;;
68386;SDS011;55338;43.062;25.624;2023-04-24T11:50:25;4.78;;;3.70;;
68386;SDS011;55338;43.062;25.624;2023-04-24T11:52:53;6.47;;;4.10;;
68386;SDS011;55338;43.062;25.624;2023-04-24T11:57:46;5.30;;;3.73;;
68386;SDS011;55338;43.062;25.624;2023-04-24T12:02:50;5.65;;;3.50;;
68386;SDS011;55338;43.062;25.624;2023-04-24T12:05:20;6.22;;;3.78;;
68386;SDS011;55338;43.062;25.624;2023-04-24T12:07:52;6.63;;;4.40;;
68386;SDS011;55338;43.062;25.624;2023-04-24T12:10:25;6.43;;;3.60;;
68386;SDS011;55338;43.062;25.624;2023-04-24T12:12:52;4.95;;;3.55;;
68386;SDS011;55338;43.062;25.624;2023-04-24T12:15:20;6.10;;;3.55;;
68386;SDS011;55338;43.062;25.624;2023-04-24T12:17:46;6.63;;;3.80;;
68386;SDS011;55338;43.062;25.624;2023-04-24T12:20:15;5.15;;;3.60;;
68386;SDS011;55338;43.062;25.624;2023-04-24T12:22:51;5.80;;;3.40;;
68386;SDS011;55338;43.062;25.624;2023-04-24T12:25:22;8.98;;;3.85;;
68386;SDS011;55338;43.062;25.624;2023-04-24T12:27:53;5.55;;;3.60;;
68386;SDS011;55338;43.062;25.624;2023-04-24T12:31:01;5.40;;;3.63;;
68386;SDS011;55338;43.062;25.624;2023-04-24T12:33:26;7.70;;;3.40;;
68386;SDS011;55338;43.062;25.624;2023-04-24T12:35:52;5.65;;;3.42;;
68386;SDS011;55338;43.062;25.624;2023-04-24T12:38:21;5.50;;;3.53;;
68386;SDS011;55338;43.062;25.624;2023-04-24T12:41:00;4.78;;;3.65;;
68386;SDS011;55338;43.062;25.624;2023-04-24T12:43:28;6.13;;;3.47;;
68386;SDS011;55338;43.062;25.624;2023-04-24T12:45:53;5.55;;;3.50;;
68386;SDS011;55338;43.062;25.624;2023-04-24T12:48:19;6.68;;;3.17;;
68386;SDS011;55338;43.062;25.624;2023-04-24T12:50:46;5.97;;;3.57;;
68386;SDS011;55338;43.062;25.624;2023-04-24T12:53:12;6.78;;;3.50;;
68386;SDS011;55338;43.062;25.624;2023-04-24T12:55:37;11.95;;;3.60;;
68386;SDS011;55338;43.062;25.624;2023-04-24T12:58:03;6.37;;;3.37;;
68386;SDS011;55338;43.062;25.624;2023-04-24T13:00:29;6.15;;;3.17;;
68386;SDS011;55338;43.062;25.624;2023-04-24T13:02:55;8.23;;;3.17;;
68386;SDS011;55338;43.062;25.624;2023-04-24T13:05:21;5.43;;;2.77;;
68386;SDS011;55338;43.062;25.624;2023-04-24T13:07:46;4.10;;;2.88;;
68386;SDS011;55338;43.062;25.624;2023-04-24T13:10:12;6.03;;;3.20;;
68386;SDS011;55338;43.062;25.624;2023-04-24T13:12:38;6.60;;;3.45;;
68386;SDS011;55338;43.062;25.624;2023-04-24T13:15:05;6.85;;;3.00;;
68386;SDS011;55338;43.062;25.624;2023-04-24T13:17:31;6.40;;;2.58;;
68386;SDS011;55338;43.062;25.624;2023-04-24T13:19:58;4.25;;;2.85;;
68386;SDS011;55338;43.062;25.624;2023-04-24T13:22:24;4.77;;;3.00;;
68386;SDS011;55338;43.062;25.624;2023-04-24T13:24:50;13.00;;;3.60;;
68386;SDS011;55338;43.062;25.624;2023-04-24T13:27:16;4.97;;;3.67;;
68386;SDS011;55338;43.062;25.624;2023-04-24T13:29:42;5.63;;;3.70;;
68386;SDS011;55338;43.062;25.624;2023-04-24T13:32:08;6.10;;;4.13;;
68386;SDS011;55338;43.062;25.624;2023-04-24T13:34:34;5.47;;;4.10;;
68386;SDS011;55338;43.062;25.624;2023-04-24T13:37:00;7.47;;;3.73;;
68386;SDS011;55338;43.062;25.624;2023-04-24T13:39:26;5.38;;;3.80;;
68386;SDS011;55338;43.062;25.624;2023-04-24T13:41:52;5.80;;;3.80;;
68386;SDS011;55338;43.062;25.624;2023-04-24T13:44:19;7.10;;;3.90;;
68386;SDS011;55338;43.062;25.624;2023-04-24T13:46:46;7.85;;;4.53;;
68386;SDS011;55338;43.062;25.624;2023-04-24T13:49:13;7.40;;;3.90;;
68386;SDS011;55338;43.062;25.624;2023-04-24T13:51:40;5.63;;;4.40;;
68386;SDS011;55338;43.062;25.624;2023-04-24T13:54:06;8.00;;;3.90;;
68386;SDS011;55338;43.062;25.624;2023-04-24T13:56:32;5.90;;;3.70;;
68386;SDS011;55338;43.062;25.624;2023-04-24T13:58:58;4.63;;;3.27;;
68386;SDS011;55338;43.062;25.624;2023-04-24T14:01:25;7.50;;;3.40;;
68386;SDS011;55338;43.062;25.624;2023-04-24T14:03:55;8.52;;;3.45;;
68386;SDS011;55338;43.062;25.624;2023-04-24T14:06:21;5.13;;;3.40;;
68386;SDS011;55338;43.062;25.624;2023-04-24T14:08:47;6.03;;;3.42;;
68386;SDS011;55338;43.062;25.624;2023-04-24T14:11:13;6.93;;;3.67;;
68386;SDS011;55338;43.062;25.624;2023-04-24T14:13:43;6.28;;;3.70;;
68386;SDS011;55338;43.062;25.624;2023-04-24T14:16:09;5.72;;;3.60;;
68386;SDS011;55338;43.062;25.624;2023-04-24T14:18:35;5.88;;;3.78;;
68386;SDS011;55338;43.062;25.624;2023-04-24T14:21:04;4.97;;;3.77;;
68386;SDS011;55338;43.062;25.624;2023-04-24T14:23:30;8.18;;;4.20;;
68386;SDS011;55338;43.062;25.624;2023-04-24T14:25:57;7.75;;;4.05;;
68386;SDS011;55338;43.062;25.624;2023-04-24T14:28:23;5.25;;;3.40;;
68386;SDS011;55338;43.062;25.624;2023-04-24T14:30:49;7.95;;;4.63;;
68386;SDS011;55338;43.062;25.624;2023-04-24T14:33:15;4.97;;;3.90;;
68386;SDS011;55338;43.062;25.624;2023-04-24T14:35:42;7.63;;;4.15;;
68386;SDS011;55338;43.062;25.624;2023-04-24T14:38:08;5.43;;;3.53;;
68386;SDS011;55338;43.062;25.624;2023-04-24T14:40:34;7.43;;;4.00;;
68386;SDS011;55338;43.062;25.624;2023-04-24T14:43:00;7.00;;;4.00;;
68386;SDS011;55338;43.062;25.624;2023-04-24T14:45:26;8.27;;;4.13;;